Huvudsida
METAR-TAF:

METAR-TAF

Flygplatser :

Shanghai Pudong International Airport

Shanghai-Pudong, Kina

latitud: 31-07N, longitud: 121-46E, höjd: 4 m

Aktuellt väderrapport

Denna rapport gjordes för 37 minuter sedan, klockan 00:00 UTC
Vind 17 kt från nordost i byarna ända upp till 29 kt
Temperatur 10°C
Fuktighet 82%
Tryck 1030 hPa
Sikt 10 km eller mer
Mulet på en höjd av 2300 ft

METAR: ZSPD 100000Z 05009G15MPS 9999 OVC023 10/07 Q1030 NOSIG

Tid: 08:37 (00:37 UTC)

Väderprognos

Denna rapport gjordes för 3 timmar och 24 minuter sedan, klockan 21:13 UTC
Prognos gäller från 10 kl. 00 UTC till 10 kl. 24 UTC
Vind 12 kt från nordost
Sikt: 6000 m
Brutna moln på en höjd av 1000 ft
Blir
från 10 kl. 18 UTC till 10 kl. 20 UTC
Vind 10 kt från nord

TAF: ZSPD 092113Z 1000/1024 05006MPS 6000 BKN010 TX10/1006Z TN05/1021Z BECMG 1018/1020 35005MPS

Aktuella väderrapporter och prognoser från 4000 flygplatser (METAR- och TAF-rapporter).

De tillgängliga stationerna syns som gula och röda prickar på kartan.

För musen över prickarna för att se namnen på stationerna.

Klicka sedan för att få väderrapporter och prognoser.

För att ändra kartan: Klicka på de gröna knapparna med ett svart kors på för att zooma in; den gröna knappen med ett streck på för att zooma ut; eller på de gröna pilarna för angränsande kartor.


METAR-TAF: